Main page
METAR-TAF:

METAR-TAF

Airports :

RAF Brize Norton

Brize Norton, England

latitude: 51-45N, longitude: 001-35W, elevation: 88 m

Current weather observation

The report was made 35 minutes ago, at 07:20 UTC
Wind 12 kt from the Northeast
Temperature 7°C
Humidity 66%
Pressure 1030 hPa
Visibility 10 km or more
Few clouds at a height of 2300 ft

METAR: EGVN 210720Z 04012KT 9999 FEW023 07/01 Q1030 NOSIG RMK BLU BLU

Time: 08:55 (07:55 UTC)

Forecast

The report was made 3 hours and 19 minutes ago, at 04:36 UTC
Forecast valid from 21 at 06 UTC to 22 at 06 UTC
Wind 8 kt from the North/Northeast
Visibility 10 km or more
Scattered clouds at a height of 3500 ft

TAF: EGVN 210436Z 2106/2206 03008KT 9999 SCT035

Weather observations and forecasts of more than 4000 airports (METAR and TAF reports).

The available stations are represented by yellow and red dots on the map.

Hover mouse over dot to see the name of the station.

Then click to see weather observations and forecasts.

To change the map : click on the green buttons with a black cross to zoom in, on the green button with a dash to zoom out, or on the green arrows for adjacent maps.


METAR-TAF: